| time (UTC) | temp F | wind direction | speed MPH | gust MPH | rain 1hr in | rain 24hr in | rain mn in | humidity % | barometer mb |
| 20260507101529 | -90 | 287 | 5.0 | 11.0 | 0.00 | 0.00 | 0.00 | 89 | 1010.9 |
| 20260507100026 | 58 | 323 | 1.0 | 10.0 | 0.00 | 0.00 | 0.00 | 90 | 1010.8 |
| 20260507094523 | 58 | 28 | 3.0 | 10.0 | 0.00 | 0.00 | 0.00 | 89 | 1010.6 |
| 20260507093026 | 58 | 301 | 2.0 | 7.0 | 0.00 | 0.00 | 0.00 | 90 | 1010.5 |
| 20260507091534 | 58 | 352 | 2.0 | 6.0 | 0.00 | 0.00 | 0.00 | 90 | 1009.9 |
| 20260507090017 | 57 | 36 | 4.0 | 10.0 | 0.00 | 0.00 | 0.00 | 91 | 1009.7 |
| 20260507084520 | 57 | 14 | 6.0 | 11.0 | 0.00 | 0.00 | 0.00 | 91 | 1009.3 |
| 20260507083013 | 57 | 28 | 7.0 | 14.0 | 0.00 | 0.00 | 0.00 | 91 | 1009.0 |
| 20260507081510 | 58 | 23 | 6.0 | 12.0 | 0.00 | 0.00 | 0.00 | 90 | 1009.0 |
| 20260507080009 | 58 | 47 | 6.0 | 11.0 | 0.00 | 0.00 | 0.00 | 90 | 1008.4 |
| 20260507074508 | 58 | 39 | 6.0 | 10.0 | 0.00 | 0.00 | 0.00 | 90 | 1008.4 |
| 20260507073007 | 58 | 37 | 7.0 | 12.0 | 0.00 | 0.00 | 0.00 | 89 | 1008.7 |
| 20260507071507 | 57 | 61 | 6.0 | 11.0 | 0.00 | 0.00 | 0.00 | 90 | 1008.2 |
| 20260507070003 | 57 | 3 | 5.0 | 9.0 | 0.00 | 0.00 | 0.00 | 89 | 1008.5 |
| 20260507064501 | 57 | 32 | 5.0 | 9.0 | 0.00 | 0.00 | 0.00 | 89 | 1008.6 |
| 20260507063102 | 58 | 10 | 7.0 | 12.0 | 0.00 | 0.00 | 0.00 | 89 | 1008.5 |
| 20260507061557 | 58 | 30 | 6.0 | 12.0 | 0.00 | 0.00 | 0.00 | 89 | 1008.7 |
| 20260507060059 | 58 | 30 | 6.0 | 10.0 | 0.00 | 0.00 | 0.00 | 88 | 1009.1 |
| 20260507054554 | 58 | 4 | 7.0 | 11.0 | 0.00 | 0.00 | 0.00 | 88 | 1008.6 |
| 20260507053050 | 59 | 26 | 11.0 | 16.0 | 0.00 | 0.00 | 0.00 | 88 | 1008.6 |
| 20260507051548 | 59 | 34 | 9.0 | 17.0 | 0.00 | 0.00 | 0.00 | 88 | 1008.7 |
| 20260507050043 | 59 | 60 | 10.0 | 15.0 | 0.00 | 0.00 | 0.00 | 87 | 1008.8 |
| 20260507044543 | 59 | 63 | 8.0 | 13.0 | 0.00 | 0.00 | 0.00 | 87 | 1008.8 |
| 20260507043041 | 60 | 338 | 8.0 | 18.0 | 0.00 | 0.00 | 0.00 | 85 | 1008.5 |
| 20260507041540 | 60 | 18 | 10.0 | 15.0 | 0.00 | 0.00 | 0.00 | 85 | 1008.6 |
| 20260507040039 | 60 | 1 | 6.0 | 12.0 | 0.00 | 0.00 | 0.00 | 83 | 1008.8 |
| 20260507034541 | 61 | 1 | 6.0 | 10.0 | 0.00 | 0.00 | 0.00 | 83 | 1008.8 |
| 20260507033042 | 61 | 319 | 1.0 | 6.0 | 0.00 | 0.00 | 0.00 | 84 | 1009.0 |
| 20260507031536 | 61 | 28 | 1.0 | 6.0 | 0.00 | 0.00 | 0.00 | 83 | 1008.8 |
| 20260507030034 | 61 | 50 | 4.0 | 8.0 | 0.00 | 0.00 | 0.00 | 82 | 1008.6 |
| 20260507024535 | 61 | 41 | 1.0 | 8.0 | 0.00 | 0.00 | 0.00 | 83 | 1008.4 |
| 20260507023031 | 61 | 352 | 4.0 | 8.0 | 0.00 | 0.00 | 0.00 | 83 | 1008.1 |
| 20260507021530 | 61 | 341 | 3.0 | 10.0 | 0.00 | 0.00 | 0.00 | 83 | 1007.7 |
| 20260507020038 | 61 | 25 | 2.0 | 8.0 | 0.00 | 0.00 | 0.00 | 84 | 1007.4 |
| 20260507014524 | 61 | 18 | 1.0 | 8.0 | 0.00 | 0.00 | 0.00 | 84 | 1007.1 |
| 20260507013039 | 61 | 342 | 2.0 | 8.0 | 0.00 | 0.00 | 0.00 | 84 | 1006.6 |
| 20260507011522 | 61 | 320 | 4.0 | 12.0 | 0.00 | 0.00 | 0.00 | 83 | 1006.2 |
| 20260507010026 | 61 | 333 | 6.0 | 11.0 | 0.00 | 0.00 | 0.00 | 83 | 1006.2 |
| 20260507004521 | 62 | 313 | 5.0 | 10.0 | 0.00 | 0.00 | 0.00 | 84 | 1006.1 |
| 20260507003021 | 62 | 39 | 4.0 | 9.0 | 0.00 | 0.00 | 0.00 | 83 | 1005.7 |
| 20260507001525 | 62 | 16 | 3.0 | 11.0 | 0.00 | 0.00 | 0.00 | 83 | 1005.7 |
| 20260507000019 | 61 | 297 | 3.0 | 10.0 | 0.00 | 0.00 | 0.00 | 84 | 1005.8 |
| 20260506234522 | 62 | 335 | 5.0 | 10.0 | 0.00 | 0.00 | 0.00 | 83 | 1005.7 |
| 20260506233017 | 62 | 322 | 4.0 | 6.0 | 0.00 | 0.00 | 0.00 | 83 | 1005.7 |
| 20260506231516 | 62 | 314 | 0.0 | 7.0 | 0.00 | 0.00 | 0.00 | 84 | 1005.6 |
| 20260506230016 | 61 | 341 | 1.0 | 7.0 | 0.00 | 0.00 | 0.00 | 83 | 1005.2 |
| 20260506224514 | 61 | 319 | 4.0 | 10.0 | 0.00 | 0.00 | 0.00 | 83 | 1005.6 |
| 20260506223014 | 61 | 4 | 2.0 | 9.0 | 0.00 | 0.00 | 0.00 | 83 | 1005.2 |
| 20260506221512 | 61 | 326 | 4.0 | 10.0 | 0.00 | 0.00 | 0.00 | 85 | 1005.4 |
| 20260506220021 | 60 | 342 | 7.0 | 13.0 | 0.00 | 0.00 | 0.00 | 83 | 1005.5 |
| 20260506214511 | 60 | 34 | 5.0 | 10.0 | 0.00 | 0.00 | 0.00 | 84 | 1005.4 |
| 20260506213010 | 60 | 342 | 5.0 | 10.0 | 0.00 | 0.00 | 0.00 | 85 | 1005.4 |
| 20260506211516 | 60 | 334 | 7.0 | 12.0 | 0.00 | 0.00 | 0.00 | 84 | 1005.7 |
| 20260506210017 | 60 | 326 | 7.0 | 14.0 | 0.00 | 0.00 | 0.00 | 84 | 1005.7 |
| 20260506204508 | 60 | 264 | 3.0 | 12.0 | 0.00 | 0.00 | 0.00 | 85 | 1005.6 |
| 20260506203008 | 60 | 357 | 4.0 | 13.0 | 0.00 | 0.00 | 0.00 | 84 | 1005.6 |
| 20260506201508 | 60 | 333 | 3.0 | 12.0 | 0.00 | 0.00 | 0.00 | 83 | 1005.8 |
| 20260506200013 | 60 | 332 | 0.0 | 13.0 | 0.00 | 0.00 | 0.00 | 83 | 1005.9 |
| 20260506194506 | 59 | 331 | 8.0 | 14.0 | 0.00 | 0.00 | 0.00 | 84 | 1005.8 |
| 20260506193007 | 59 | 345 | 0.0 | 7.0 | 0.00 | 0.00 | 0.00 | 84 | 1006.2 |
| 20260506191504 | 58 | 335 | 0.0 | 5.0 | 0.00 | 0.00 | 0.00 | 85 | 1006.0 |
| 20260506190004 | 59 | 4 | 0.0 | 4.0 | 0.00 | 0.00 | 0.00 | 85 | 1006.0 |
| 20260506184504 | 59 | 341 | 1.0 | 6.0 | 0.00 | 0.00 | 0.00 | 85 | 1006.3 |
| 20260506183005 | 59 | 311 | 0.0 | 3.0 | 0.00 | 0.00 | 0.00 | 83 | 1005.8 |
| 20260506181503 | 59 | 341 | 0.0 | 5.0 | 0.00 | 0.00 | 0.00 | 84 | 1006.1 |
| 20260506180004 | 59 | 330 | 0.0 | 2.0 | 0.00 | 0.00 | 0.00 | 83 | 1006.1 |
| 20260506174601 | 59 | 25 | 0.0 | 3.0 | 0.00 | 0.00 | 0.00 | 82 | 1006.1 |
| 20260506173112 | 60 | 323 | 0.0 | 4.0 | 0.00 | 0.00 | 0.00 | 82 | 1005.9 |
| 20260506171610 | 60 | 18 | 0.0 | 2.0 | 0.00 | 0.00 | 0.00 | 82 | 1005.0 |
| 20260506170105 | 61 | 28 | 0.0 | 0.0 | 0.00 | 0.00 | 0.00 | 83 | 1003.5 |
| 20260506164614 | 60 | 39 | 0.0 | 0.0 | 0.00 | 0.00 | 0.00 | 88 | 1004.3 |
| 20260506163103 | 58 | 77 | 0.0 | 0.0 | 0.00 | 0.00 | 0.00 | 90 | 1004.7 |
| 20260506161557 | 56 | 40 | 0.0 | 0.0 | 0.00 | 0.00 | 0.00 | 89 | 1005.9 |
| 20260506160107 | 57 | 51 | 0.0 | 0.0 | 0.00 | 0.00 | 0.00 | 88 | 1006.0 |
| 20260506154555 | 57 | 10 | 0.0 | 0.0 | 0.00 | 0.00 | 0.00 | 88 | 1006.6 |
| 20260506153055 | 56 | 335 | 0.0 | 0.0 | 0.00 | 0.00 | 0.00 | 90 | 1006.4 |
| 20260506151553 | 56 | 15 | 0.0 | 0.0 | 0.00 | 0.00 | 0.00 | 90 | 1006.7 |
| 20260506150050 | 57 | 349 | 0.0 | 0.0 | 0.00 | 0.00 | 0.00 | 90 | 1006.2 |
| 20260506144546 | 58 | 320 | 0.0 | 0.0 | 0.00 | 0.00 | 0.00 | 88 | 1006.0 |
| 20260506143043 | 58 | 323 | 0.0 | 0.0 | 0.00 | 0.00 | 0.00 | 88 | 1005.6 |
| 20260506141556 | 59 | 329 | 0.0 | 0.0 | 0.00 | 0.00 | 0.00 | 89 | 1005.8 |
| 20260506140039 | 59 | 1 | 0.0 | 0.0 | 0.00 | 0.00 | 0.00 | 90 | 1004.8 |
| 20260506134533 | 59 | 15 | 0.0 | 0.0 | 0.00 | 0.00 | 0.00 | 91 | 1004.3 |
| 20260506133033 | 60 | 96 | 0.0 | 0.0 | 0.00 | 0.00 | 0.00 | 91 | 1004.2 |
| 20260506131536 | 60 | 308 | 0.0 | 0.0 | 0.00 | 0.00 | 0.00 | 92 | 1004.1 |
| 20260506130028 | 0 | 0.0 | 0.0 | 0.00 | 0.00 | 0.00 | 1003.8 | ||
| 20260506124524 | 0 | 0.0 | 0.0 | 0.00 | 0.00 | 0.00 | 1003.6 | ||
| 20260506123021 | 0 | 0.0 | 0.0 | 0.00 | 0.00 | 0.00 | 1003.3 | ||
| 20260506121516 | 0 | 0.0 | 0.0 | 0.00 | 0.00 | 0.00 | 1003.1 | ||
| 20260506120008 | 0 | 0.0 | 0.0 | 0.00 | 0.00 | 0.00 | 1002.8 | ||
| 20260506114504 | 0 | 0.0 | 0.0 | 0.00 | 0.00 | 0.00 | 1002.5 | ||
| 20260506113002 | 0 | 0.0 | 0.0 | 0.00 | 0.00 | 0.00 | 1002.5 | ||
| 20260506111558 | 0 | 0.0 | 0.0 | 0.00 | 0.00 | 0.00 | 1002.4 | ||
| 20260506110054 | 0 | 0.0 | 0.0 | 0.00 | 0.00 | 0.00 | 1002.1 | ||
| 20260506104548 | 0 | 0.0 | 0.0 | 0.00 | 0.00 | 0.00 | 1001.9 | ||
| 20260506103043 | 0 | 0.0 | 0.0 | 0.00 | 0.00 | 0.00 | 1001.6 |